Time;durP1;ratioP1;P1;durP2;ratioP2;P2;SDS_P1;SDS_P2;PMS_P1;PMS_P2;Temp;Humidity;BMP_temperature;BMP_pressure;BME280_temperature;BME280_humidity;BME280_pressure;Samples;Min_cycle;Max_cycle;Signal;HPM_P1;HPM_P2
2022/03/13 00:02:16;;;;;;;4.57;0.82;;;;;;;;;;4998365;28;20461;-58
2022/03/13 00:04:44;;;;;;;2.50;0.70;;;;;;;;;;4995705;28;20488;-59
2022/03/13 00:07:17;;;;;;;10.15;1.08;;;;;;;;;;4996560;28;20038;-58
2022/03/13 00:09:44;;;;;;;5.28;0.80;;;;;;;;;;4997628;28;20146;-58
2022/03/13 00:12:14;;;;;;;4.30;0.80;;;;;;;;;;4995720;28;20381;-57
2022/03/13 00:14:42;;;;;;;4.05;0.60;;;;;;;;;;4991769;28;20052;-58
2022/03/13 00:17:09;;;;;;;1.80;0.60;;;;;;;;;;4996737;28;20057;-57
2022/03/13 00:19:35;;;;;;;6.00;0.80;;;;;;;;;;4994463;28;20467;-60
2022/03/13 00:22:01;;;;;;;2.22;0.80;;;;;;;;;;4994957;28;20041;-57
2022/03/13 00:24:27;;;;;;;2.90;0.85;;;;;;;;;;4996392;28;20049;-58
2022/03/13 00:26:54;;;;;;;5.93;0.90;;;;;;;;;;4997489;28;20087;-57
2022/03/13 00:29:20;;;;;;;2.22;0.60;;;;;;;;;;4995086;28;20161;-59
2022/03/13 00:31:47;;;;;;;1.75;0.63;;;;;;;;;;4995362;28;20045;-56
2022/03/13 00:34:13;;;;;;;1.92;0.65;;;;;;;;;;4996256;28;20057;-57
2022/03/13 00:36:40;;;;;;;2.42;0.52;;;;;;;;;;4993795;28;20058;-58
2022/03/13 00:39:06;;;;;;;3.17;0.60;;;;;;;;;;4996149;28;20133;-57
2022/03/13 00:41:32;;;;;;;3.45;0.60;;;;;;;;;;5000860;28;21003;-59
2022/03/13 00:43:58;;;;;;;1.85;0.60;;;;;;;;;;4998501;28;20052;-59
2022/03/13 00:46:25;;;;;;;3.85;0.73;;;;;;;;;;4997340;28;20045;-58
2022/03/13 00:48:51;;;;;;;2.58;0.80;;;;;;;;;;4998163;28;20588;-58
2022/03/13 00:51:17;;;;;;;4.18;2.05;;;;;;;;;;4998778;28;20053;-57
2022/03/13 00:53:44;;;;;;;2.97;0.82;;;;;;;;;;5001009;28;20099;-57
2022/03/13 00:56:10;;;;;;;2.70;0.75;;;;;;;;;;4999722;28;20052;-59
2022/03/13 00:58:38;;;;;;;3.33;0.95;;;;;;;;;;4998755;28;20048;-59
2022/03/13 01:01:04;;;;;;;5.65;0.80;;;;;;;;;;5001449;28;20034;-58
2022/03/13 01:03:36;;;;;;;9.43;1.40;;;;;;;;;;4998423;28;20439;-58
2022/03/13 01:06:03;;;;;;;2.58;0.80;;;;;;;;;;4998585;28;20160;-57
2022/03/13 01:08:29;;;;;;;4.25;0.90;;;;;;;;;;4996135;28;20124;-57
2022/03/13 01:10:56;;;;;;;6.40;1.20;;;;;;;;;;4997388;28;20515;-56
2022/03/13 01:13:22;;;;;;;4.93;1.30;;;;;;;;;;4997907;28;20431;-57
2022/03/13 01:15:48;;;;;;;6.68;1.20;;;;;;;;;;5000309;28;20045;-58
2022/03/13 01:18:15;;;;;;;10.05;1.20;;;;;;;;;;4990286;28;20544;-57
2022/03/13 01:20:41;;;;;;;12.77;3.10;;;;;;;;;;4998150;28;20124;-57
2022/03/13 01:23:11;;;;;;;7.28;1.58;;;;;;;;;;5000486;28;20057;-60
2022/03/13 01:25:38;;;;;;;8.35;1.27;;;;;;;;;;4999866;28;20038;-58
2022/03/13 01:28:10;;;;;;;11.57;2.00;;;;;;;;;;4996258;28;20062;-59
2022/03/13 01:30:36;;;;;;;6.43;1.70;;;;;;;;;;4989697;28;20407;-58
2022/03/13 01:33:03;;;;;;;12.02;1.73;;;;;;;;;;4997942;28;20046;-58
2022/03/13 01:35:29;;;;;;;5.97;2.00;;;;;;;;;;4996971;28;20633;-57
2022/03/13 01:37:54;;;;;;;7.32;1.40;;;;;;;;;;4995325;28;20041;-58
2022/03/13 01:40:22;;;;;;;7.82;1.35;;;;;;;;;;4997882;28;20054;-58
2022/03/13 01:42:48;;;;;;;5.57;2.33;;;;;;;;;;4998242;28;20036;-56
2022/03/13 01:45:15;;;;;;;10.15;2.60;;;;;;;;;;4999302;28;20052;-57
2022/03/13 01:47:45;;;;;;;6.88;1.33;;;;;;;;;;4999585;28;20052;-59
2022/03/13 01:50:11;;;;;;;6.72;1.60;;;;;;;;;;4998714;28;20052;-60
2022/03/13 01:52:38;;;;;;;7.00;1.33;;;;;;;;;;4996672;28;20834;-59
2022/03/13 01:55:04;;;;;;;5.95;1.15;;;;;;;;;;4999645;28;20468;-59
2022/03/13 01:57:32;;;;;;;3.47;1.10;;;;;;;;;;4997857;28;20033;-56
2022/03/13 01:59:59;;;;;;;4.90;2.55;;;;;;;;;;5009568;28;20846;-58
2022/03/13 02:02:25;;;;;;;13.77;4.50;;;;;;;;;;4996649;28;21034;-57
2022/03/13 02:04:52;;;;;;;8.68;3.97;;;;;;;;;;4998883;28;20050;-56
2022/03/13 02:07:19;;;;;;;5.53;2.08;;;;;;;;;;4995940;28;20042;-57
2022/03/13 02:09:48;;;;;;;5.68;2.00;;;;;;;;;;4995486;28;20038;-57
2022/03/13 02:12:16;;;;;;;4.22;1.42;;;;;;;;;;4997299;28;20053;-58
2022/03/13 02:14:42;;;;;;;10.32;2.05;;;;;;;;;;4997735;28;20107;-56
2022/03/13 02:17:08;;;;;;;6.32;1.60;;;;;;;;;;4998250;28;20823;-57
2022/03/13 02:19:34;;;;;;;6.03;1.60;;;;;;;;;;4997167;28;20045;-55
2022/03/13 02:22:00;;;;;;;9.55;3.55;;;;;;;;;;4999788;28;20541;-58
2022/03/13 02:24:28;;;;;;;10.75;3.75;;;;;;;;;;4996198;28;20045;-56
2022/03/13 02:27:01;;;;;;;6.40;2.13;;;;;;;;;;4998361;28;20044;-57
2022/03/13 02:29:27;;;;;;;;;;;;;;;;;;4998140;28;20137;-56
2022/03/13 02:31:52;;;;;;;5.30;1.48;;;;;;;;;;4996993;28;19921;-57
2022/03/13 02:34:19;;;;;;;5.53;1.38;;;;;;;;;;4995984;28;20076;-56
2022/03/13 02:36:49;;;;;;;4.78;1.20;;;;;;;;;;4997421;28;20811;-55
2022/03/13 02:39:15;;;;;;;3.45;0.95;;;;;;;;;;4995779;28;20069;-58
2022/03/13 02:41:42;;;;;;;5.07;0.80;;;;;;;;;;4994386;28;20042;-57
2022/03/13 02:44:08;;;;;;;4.63;1.42;;;;;;;;;;5006895;28;20048;-54
2022/03/13 02:46:46;;;;;;;8.55;1.20;;;;;;;;;;5010983;28;20603;-59
2022/03/13 02:49:13;;;;;;;6.57;1.20;;;;;;;;;;4997063;28;20060;-55
2022/03/13 02:51:39;;;;;;;2.45;0.80;;;;;;;;;;4996975;28;20053;-58
2022/03/13 02:54:05;;;;;;;3.83;0.98;;;;;;;;;;4996095;28;20054;-57
2022/03/13 02:56:31;;;;;;;4.25;1.10;;;;;;;;;;4994344;28;20044;-57
2022/03/13 02:58:57;;;;;;;7.90;1.35;;;;;;;;;;4994643;28;20393;-58
2022/03/13 03:01:23;;;;;;;4.00;1.13;;;;;;;;;;4994423;28;20443;-58
2022/03/13 03:03:49;;;;;;;2.80;0.95;;;;;;;;;;4995663;28;20089;-58
2022/03/13 03:06:15;;;;;;;8.20;1.10;;;;;;;;;;5028030;28;20038;-58
2022/03/13 03:08:41;;;;;;;3.40;1.02;;;;;;;;;;4995314;28;20492;-57
2022/03/13 03:11:07;;;;;;;6.30;2.13;;;;;;;;;;4993635;28;20098;-58
2022/03/13 03:13:34;;;;;;;5.30;1.98;;;;;;;;;;4997158;28;20065;-56
2022/03/13 03:15:59;;;;;;;3.20;0.90;;;;;;;;;;4994688;28;20655;-57
2022/03/13 03:18:25;;;;;;;2.47;0.90;;;;;;;;;;4996048;28;20037;-56
2022/03/13 03:20:51;;;;;;;5.60;1.10;;;;;;;;;;4995729;28;20507;-57
2022/03/13 03:23:17;;;;;;;5.13;1.23;;;;;;;;;;4995358;28;20062;-57
2022/03/13 03:25:43;;;;;;;3.53;1.10;;;;;;;;;;4996483;28;20153;-58
2022/03/13 03:28:10;;;;;;;5.95;1.73;;;;;;;;;;4994681;28;20058;-58
2022/03/13 03:30:36;;;;;;;6.18;1.40;;;;;;;;;;4995121;28;20041;-57
2022/03/13 03:33:02;;;;;;;4.22;1.52;;;;;;;;;;4995433;28;20058;-56
2022/03/13 03:35:29;;;;;;;3.05;1.08;;;;;;;;;;4994832;28;20065;-57
2022/03/13 03:37:55;;;;;;;5.75;1.33;;;;;;;;;;4997364;28;20061;-58
2022/03/13 03:40:22;;;;;;;5.00;1.55;;;;;;;;;;4997115;28;20081;-59
2022/03/13 03:42:48;;;;;;;10.13;1.40;;;;;;;;;;4996436;28;20048;-57
2022/03/13 03:45:16;;;;;;;2.85;1.10;;;;;;;;;;4996894;28;20042;-57
2022/03/13 03:47:43;;;;;;;3.22;1.33;;;;;;;;;;4996319;28;20105;-57
2022/03/13 03:50:09;;;;;;;2.53;1.10;;;;;;;;;;5000589;28;20052;-57
2022/03/13 03:52:35;;;;;;;3.53;1.00;;;;;;;;;;4997742;28;20124;-56
2022/03/13 03:55:01;;;;;;;3.47;1.38;;;;;;;;;;5003075;28;20133;-58
2022/03/13 03:57:27;;;;;;;3.58;1.15;;;;;;;;;;5003639;28;20042;-56
2022/03/13 03:59:53;;;;;;;3.33;1.10;;;;;;;;;;5003312;28;20038;-58
2022/03/13 04:02:19;;;;;;;2.53;1.00;;;;;;;;;;4998808;28;20034;-57
2022/03/13 04:04:46;;;;;;;3.70;1.10;;;;;;;;;;4997956;28;20049;-58
2022/03/13 04:07:13;;;;;;;3.25;1.20;;;;;;;;;;4997497;28;20038;-58
2022/03/13 04:09:38;;;;;;;4.72;1.10;;;;;;;;;;4995625;28;20061;-60
2022/03/13 04:12:08;;;;;;;4.55;1.15;;;;;;;;;;4997249;28;20050;-59
2022/03/13 04:14:37;;;;;;;3.22;1.10;;;;;;;;;;5002010;28;20571;-57
2022/03/13 04:17:13;;;;;;;5.07;1.25;;;;;;;;;;5001219;28;20046;-57
2022/03/13 04:19:39;;;;;;;2.75;1.08;;;;;;;;;;5016113;28;20041;-57
2022/03/13 04:22:05;;;;;;;7.65;1.45;;;;;;;;;;5001293;28;20041;-55
2022/03/13 04:24:31;;;;;;;4.03;1.20;;;;;;;;;;5002346;28;20041;-58
2022/03/13 04:26:57;;;;;;;4.78;1.27;;;;;;;;;;4999836;28;20453;-59
2022/03/13 04:29:23;;;;;;;4.25;1.58;;;;;;;;;;5000704;28;20034;-57
2022/03/13 04:31:49;;;;;;;4.25;1.90;;;;;;;;;;4999915;28;20045;-58
2022/03/13 04:34:16;;;;;;;5.30;2.38;;;;;;;;;;4999393;28;20044;-59
2022/03/13 04:36:42;;;;;;;4.63;1.90;;;;;;;;;;5001331;28;20104;-58
2022/03/13 04:39:08;;;;;;;3.40;1.17;;;;;;;;;;4998265;28;20033;-57
2022/03/13 04:41:34;;;;;;;4.00;1.00;;;;;;;;;;4997293;28;20408;-58
2022/03/13 04:44:01;;;;;;;3.78;1.30;;;;;;;;;;5001145;28;20383;-56
2022/03/13 04:46:27;;;;;;;2.97;1.20;;;;;;;;;;4998164;28;20042;-56
2022/03/13 04:48:53;;;;;;;2.55;1.10;;;;;;;;;;4999263;28;20042;-56
2022/03/13 04:51:19;;;;;;;5.95;1.25;;;;;;;;;;4997944;28;20500;-58
2022/03/13 04:53:45;;;;;;;2.55;1.00;;;;;;;;;;5007587;28;20110;-56
2022/03/13 04:56:11;;;;;;;2.40;0.90;;;;;;;;;;5031601;28;20076;-55
2022/03/13 04:58:37;;;;;;;2.33;0.90;;;;;;;;;;4998728;28;20553;-57
2022/03/13 05:01:03;;;;;;;3.00;1.10;;;;;;;;;;4997966;28;20053;-57
2022/03/13 05:03:33;;;;;;;4.65;1.10;;;;;;;;;;4996498;28;20140;-58
2022/03/13 05:06:05;;;;;;;5.45;1.15;;;;;;;;;;4997547;28;20069;-56
2022/03/13 05:08:34;;;;;;;4.10;1.10;;;;;;;;;;4995069;28;20038;-57
2022/03/13 05:11:00;;;;;;;2.38;0.80;;;;;;;;;;4997609;28;20432;-57
2022/03/13 05:13:27;;;;;;;3.30;0.90;;;;;;;;;;4991210;28;20118;-58
2022/03/13 05:15:53;;;;;;;3.80;1.10;;;;;;;;;;5027344;28;20042;-57
2022/03/13 05:18:19;;;;;;;3.53;0.80;;;;;;;;;;4997265;28;20062;-57
2022/03/13 05:20:46;;;;;;;3.28;1.10;;;;;;;;;;4996900;28;20535;-57
2022/03/13 05:23:12;;;;;;;3.05;0.98;;;;;;;;;;5000663;28;20049;-57
2022/03/13 05:25:38;;;;;;;6.00;1.00;;;;;;;;;;5000381;28;20045;-56
2022/03/13 05:28:05;;;;;;;3.28;0.93;;;;;;;;;;4998639;28;20443;-58
2022/03/13 05:30:32;;;;;;;2.70;0.90;;;;;;;;;;5002364;28;20072;-59
2022/03/13 05:32:58;;;;;;;2.78;0.80;;;;;;;;;;5001989;28;20064;-58
2022/03/13 05:35:25;;;;;;;3.22;1.00;;;;;;;;;;5004834;28;20060;-57
2022/03/13 05:37:51;;;;;;;2.47;0.85;;;;;;;;;;5003252;28;20494;-57
2022/03/13 05:40:19;;;;;;;3.47;1.00;;;;;;;;;;5002028;28;20042;-59
2022/03/13 05:42:49;;;;;;;4.10;0.82;;;;;;;;;;4996419;28;20034;-57
2022/03/13 05:45:16;;;;;;;6.50;1.13;;;;;;;;;;5004741;28;20099;-57
2022/03/13 05:47:49;;;;;;;3.45;1.00;;;;;;;;;;5000916;28;20037;-57
2022/03/13 05:50:16;;;;;;;3.77;1.40;;;;;;;;;;4998232;28;20091;-57
2022/03/13 05:52:44;;;;;;;4.07;1.35;;;;;;;;;;4996042;28;20276;-57
2022/03/13 05:55:10;;;;;;;2.58;0.80;;;;;;;;;;4990521;28;20104;-58
2022/03/13 05:57:36;;;;;;;7.88;1.20;;;;;;;;;;4997297;28;20038;-58
2022/03/13 06:00:07;;;;;;;2.10;0.70;;;;;;;;;;5000884;28;20753;-58
2022/03/13 06:02:40;;;;;;;3.65;0.88;;;;;;;;;;4996601;28;20052;-55
2022/03/13 06:05:07;;;;;;;3.08;0.93;;;;;;;;;;5000130;28;20172;-57
2022/03/13 06:07:32;;;;;;;2.35;0.85;;;;;;;;;;4997100;28;20056;-57
2022/03/13 06:10:02;;;;;;;6.78;1.15;;;;;;;;;;5001969;28;20030;-58
2022/03/13 06:12:30;;;;;;;2.58;0.90;;;;;;;;;;5013337;28;20042;-57
2022/03/13 06:14:57;;;;;;;5.65;0.82;;;;;;;;;;4998826;28;20049;-59
2022/03/13 06:17:23;;;;;;;3.70;0.90;;;;;;;;;;4997853;28;20043;-58
2022/03/13 06:19:50;;;;;;;4.07;0.80;;;;;;;;;;4997923;28;20121;-58
2022/03/13 06:22:17;;;;;;;8.75;0.90;;;;;;;;;;5000746;28;20042;-55
2022/03/13 06:24:43;;;;;;;2.65;0.90;;;;;;;;;;4998881;28;20061;-57
2022/03/13 06:27:10;;;;;;;2.80;0.90;;;;;;;;;;4998600;28;20749;-57
2022/03/13 06:29:40;;;;;;;2.47;1.05;;;;;;;;;;4998404;28;20037;-57
2022/03/13 06:32:06;;;;;;;3.80;0.95;;;;;;;;;;4996736;28;20041;-58
2022/03/13 06:34:33;;;;;;;2.80;0.95;;;;;;;;;;4997942;28;20054;-57
2022/03/13 06:36:58;;;;;;;3.17;0.98;;;;;;;;;;4996539;28;20045;-58
2022/03/13 06:39:24;;;;;;;3.25;1.00;;;;;;;;;;4994482;28;20056;-59
2022/03/13 06:41:51;;;;;;;2.17;0.73;;;;;;;;;;4996438;28;20065;-56
2022/03/13 06:44:17;;;;;;;5.75;1.10;;;;;;;;;;4992927;28;20046;-57
2022/03/13 06:46:43;;;;;;;2.10;0.80;;;;;;;;;;4996228;28;20076;-57
2022/03/13 06:49:09;;;;;;;2.45;0.80;;;;;;;;;;4996959;28;20193;-57
2022/03/13 06:51:38;;;;;;;2.20;0.90;;;;;;;;;;4994901;28;20080;-58
2022/03/13 06:54:13;;;;;;;2.50;0.90;;;;;;;;;;5027549;28;20496;-58
2022/03/13 06:56:40;;;;;;;2.80;0.98;;;;;;;;;;4996264;28;20056;-57
2022/03/13 06:59:06;;;;;;;2.78;1.00;;;;;;;;;;4996273;28;20040;-56
2022/03/13 07:01:32;;;;;;;2.80;1.00;;;;;;;;;;4996242;28;20038;-57
2022/03/13 07:03:58;;;;;;;3.03;1.02;;;;;;;;;;5006916;28;20038;-57
2022/03/13 07:06:24;;;;;;;3.42;1.25;;;;;;;;;;4995117;28;20369;-57
2022/03/13 07:08:50;;;;;;;3.22;1.10;;;;;;;;;;4995085;28;20119;-57
2022/03/13 07:11:16;;;;;;;3.08;1.10;;;;;;;;;;4996036;28;20123;-57
2022/03/13 07:13:44;;;;;;;3.65;1.20;;;;;;;;;;4994815;28;21089;-58
2022/03/13 07:16:10;;;;;;;4.45;1.25;;;;;;;;;;4996815;28;20041;-57
2022/03/13 07:18:36;;;;;;;5.97;1.50;;;;;;;;;;4995709;28;20795;-56
2022/03/13 07:21:02;;;;;;;3.67;1.67;;;;;;;;;;5012353;28;20046;-56
2022/03/13 07:23:29;;;;;;;4.22;1.50;;;;;;;;;;4996964;28;20042;-57
2022/03/13 07:25:54;;;;;;;3.35;1.20;;;;;;;;;;4997759;28;20125;-57
2022/03/13 07:28:20;;;;;;;3.00;1.20;;;;;;;;;;4997105;28;20096;-57
2022/03/13 07:30:46;;;;;;;3.55;1.40;;;;;;;;;;4998529;28;20557;-57
2022/03/13 07:33:12;;;;;;;4.43;1.30;;;;;;;;;;4998518;28;20584;-55
2022/03/13 07:35:38;;;;;;;3.70;1.52;;;;;;;;;;4992906;28;20830;-58
2022/03/13 07:38:05;;;;;;;2.95;0.93;;;;;;;;;;4996964;28;20091;-57
2022/03/13 07:40:31;;;;;;;3.20;1.30;;;;;;;;;;4995232;28;20143;-57
2022/03/13 07:42:57;;;;;;;5.65;1.13;;;;;;;;;;4998003;28;20587;-57
2022/03/13 07:45:24;;;;;;;2.95;1.20;;;;;;;;;;4995586;28;20117;-56
2022/03/13 07:47:50;;;;;;;4.82;1.30;;;;;;;;;;4996629;28;20041;-57
2022/03/13 07:50:17;;;;;;;5.55;1.17;;;;;;;;;;4999001;28;20042;-56
2022/03/13 07:52:43;;;;;;;5.75;1.50;;;;;;;;;;4998880;28;20040;-56
2022/03/13 07:55:09;;;;;;;3.92;1.40;;;;;;;;;;5003941;28;20073;-54
2022/03/13 07:57:38;;;;;;;2.63;1.05;;;;;;;;;;5032467;28;20046;-56
2022/03/13 08:00:04;;;;;;;6.82;1.30;;;;;;;;;;5001668;28;20045;-56
2022/03/13 08:02:32;;;;;;;4.38;1.27;;;;;;;;;;5000028;28;20551;-57
2022/03/13 08:04:58;;;;;;;4.07;1.60;;;;;;;;;;5000792;28;20456;-56
2022/03/13 08:07:24;;;;;;;2.92;1.27;;;;;;;;;;4998279;28;20053;-56
2022/03/13 08:09:50;;;;;;;7.80;1.33;;;;;;;;;;5001176;28;20043;-56
2022/03/13 08:12:16;;;;;;;4.82;1.30;;;;;;;;;;4999904;28;20058;-56
2022/03/13 08:14:42;;;;;;;4.82;1.50;;;;;;;;;;5003205;28;20054;-57
2022/03/13 08:17:08;;;;;;;4.30;1.35;;;;;;;;;;5001270;28;20138;-56
2022/03/13 08:19:34;;;;;;;2.83;1.20;;;;;;;;;;4998665;28;20173;-56
2022/03/13 08:22:00;;;;;;;3.63;1.45;;;;;;;;;;5001372;28;20135;-56
2022/03/13 08:24:26;;;;;;;5.07;1.67;;;;;;;;;;5003162;28;20042;-57
2022/03/13 08:26:52;;;;;;;4.30;1.70;;;;;;;;;;5002157;28;20059;-56
2022/03/13 08:29:18;;;;;;;5.85;1.65;;;;;;;;;;4998852;28;20042;-55
2022/03/13 08:31:44;;;;;;;4.60;1.48;;;;;;;;;;4999353;28;20121;-56
2022/03/13 08:34:10;;;;;;;5.65;1.55;;;;;;;;;;4999483;28;20081;-55
2022/03/13 08:36:36;;;;;;;4.63;1.60;;;;;;;;;;4993553;28;20038;-57
2022/03/13 08:39:02;;;;;;;3.72;1.20;;;;;;;;;;5001043;28;20038;-56
2022/03/13 08:41:28;;;;;;;8.15;1.17;;;;;;;;;;5004069;28;20050;-57
2022/03/13 08:43:54;;;;;;;4.68;1.30;;;;;;;;;;5004005;28;20098;-56
2022/03/13 08:46:20;;;;;;;4.47;1.35;;;;;;;;;;5003808;28;20125;-57
2022/03/13 08:48:46;;;;;;;5.18;1.25;;;;;;;;;;5003817;28;20060;-57
2022/03/13 08:51:13;;;;;;;3.58;1.17;;;;;;;;;;5003925;28;20107;-57
2022/03/13 08:53:39;;;;;;;2.97;0.93;;;;;;;;;;4996178;28;21024;-56
2022/03/13 08:56:05;;;;;;;5.20;1.50;;;;;;;;;;5028568;28;20073;-56
2022/03/13 08:58:31;;;;;;;5.10;1.20;;;;;;;;;;5000964;28;20141;-56
2022/03/13 09:00:57;;;;;;;2.25;0.80;;;;;;;;;;5002253;28;20038;-54
2022/03/13 09:03:24;;;;;;;4.28;1.20;;;;;;;;;;5005775;28;20052;-56
2022/03/13 09:05:50;;;;;;;2.80;1.15;;;;;;;;;;5000724;28;20093;-57
2022/03/13 09:08:16;;;;;;;3.13;1.20;;;;;;;;;;5000594;28;20038;-56
2022/03/13 09:10:42;;;;;;;3.90;1.20;;;;;;;;;;5001991;28;20767;-56
2022/03/13 09:13:08;;;;;;;6.60;1.15;;;;;;;;;;5003288;28;20054;-56
2022/03/13 09:15:34;;;;;;;2.83;0.98;;;;;;;;;;5002246;28;20049;-55
2022/03/13 09:18:02;;;;;;;2.50;0.90;;;;;;;;;;5003321;28;20081;-57
2022/03/13 09:20:28;;;;;;;3.50;1.20;;;;;;;;;;5000301;28;20037;-56
2022/03/13 09:22:55;;;;;;;2.65;0.90;;;;;;;;;;5000372;28;20042;-56
2022/03/13 09:25:21;;;;;;;4.57;1.02;;;;;;;;;;4998328;28;20057;-56
2022/03/13 09:27:48;;;;;;;3.22;1.10;;;;;;;;;;5001548;28;20152;-55
2022/03/13 09:30:14;;;;;;;3.40;1.20;;;;;;;;;;4997675;28;20053;-56
2022/03/13 09:32:40;;;;;;;3.13;1.05;;;;;;;;;;4999380;28;20041;-55
2022/03/13 09:35:06;;;;;;;2.80;0.90;;;;;;;;;;5002576;28;20690;-55
2022/03/13 09:37:32;;;;;;;4.20;1.23;;;;;;;;;;4996197;28;20050;-57
2022/03/13 09:39:58;;;;;;;2.45;0.82;;;;;;;;;;5002716;28;20037;-57
2022/03/13 09:42:24;;;;;;;2.60;0.85;;;;;;;;;;4999541;28;20489;-56
2022/03/13 09:44:50;;;;;;;3.03;0.90;;;;;;;;;;4998829;28;20044;-54
2022/03/13 09:47:16;;;;;;;2.75;1.00;;;;;;;;;;4997912;28;20038;-56
2022/03/13 09:49:43;;;;;;;2.92;0.95;;;;;;;;;;4995751;28;20687;-56
2022/03/13 09:52:09;;;;;;;2.50;0.90;;;;;;;;;;4997800;28;20085;-56
2022/03/13 09:54:35;;;;;;;3.28;1.08;;;;;;;;;;4998020;28;20614;-57
2022/03/13 09:57:02;;;;;;;2.72;0.82;;;;;;;;;;4998829;28;20037;-57
2022/03/13 09:59:28;;;;;;;3.47;1.13;;;;;;;;;;4998604;28;20117;-56
2022/03/13 10:01:54;;;;;;;2.60;0.90;;;;;;;;;;4997976;28;20075;-56
2022/03/13 10:04:20;;;;;;;2.42;0.90;;;;;;;;;;4996129;28;20488;-56
2022/03/13 10:07:04;;;;;;;3.78;0.85;;;;;;;;;;5006571;28;20045;-56
2022/03/13 10:09:32;;;;;;;3.03;0.88;;;;;;;;;;4999979;28;20103;-56
2022/03/13 10:12:06;;;;;;;2.35;0.95;;;;;;;;;;4999564;28;20073;-58
2022/03/13 10:14:32;;;;;;;3.15;1.00;;;;;;;;;;4999180;28;20073;-57
2022/03/13 10:16:58;;;;;;;2.55;0.90;;;;;;;;;;4997337;28;20500;-56
2022/03/13 10:19:27;;;;;;;3.20;0.95;;;;;;;;;;4997580;28;20052;-57
2022/03/13 10:22:04;;;;;;;3.20;1.10;;;;;;;;;;4999665;28;20037;-55
2022/03/13 10:24:40;;;;;;;3.33;1.02;;;;;;;;;;5012781;28;20037;-56
2022/03/13 10:27:12;;;;;;;4.97;1.20;;;;;;;;;;4996040;28;20499;-54
2022/03/13 10:29:39;;;;;;;4.03;1.33;;;;;;;;;;4998580;28;20095;-56
2022/03/13 10:32:05;;;;;;;3.10;1.20;;;;;;;;;;4999410;28;20042;-53
2022/03/13 10:34:34;;;;;;;2.80;0.93;;;;;;;;;;4996792;28;20137;-56
2022/03/13 10:37:03;;;;;;;2.65;0.90;;;;;;;;;;4997190;28;20054;-57
2022/03/13 10:39:30;;;;;;;4.22;1.13;;;;;;;;;;4998465;28;20179;-55
2022/03/13 10:42:03;;;;;;;3.78;1.30;;;;;;;;;;4996424;28;20381;-55
2022/03/13 10:44:36;;;;;;;3.08;1.25;;;;;;;;;;4996758;28;20490;-55
2022/03/13 10:47:08;;;;;;;2.58;0.90;;;;;;;;;;4997377;28;20042;-56
2022/03/13 10:49:37;;;;;;;9.07;1.08;;;;;;;;;;4995120;28;21654;-56
2022/03/13 10:52:22;;;;;;;3.03;1.25;;;;;;;;;;4997288;28;20041;-56
2022/03/13 10:54:48;;;;;;;3.72;1.23;;;;;;;;;;4997527;28;20056;-56
2022/03/13 10:57:14;;;;;;;3.80;1.30;;;;;;;;;;4999605;28;20152;-56
2022/03/13 10:59:41;;;;;;;2.92;1.02;;;;;;;;;;4996557;28;20375;-54
2022/03/13 11:02:12;;;;;;;8.15;1.33;;;;;;;;;;4997465;28;20758;-54
2022/03/13 11:04:58;;;;;;;8.75;1.20;;;;;;;;;;5011856;28;20046;-57
2022/03/13 11:07:26;;;;;;;3.20;1.10;;;;;;;;;;4997160;28;20132;-57
2022/03/13 11:09:56;;;;;;;2.97;1.13;;;;;;;;;;4996024;28;20126;-54
2022/03/13 11:12:23;;;;;;;3.33;1.00;;;;;;;;;;4995278;28;20061;-57
2022/03/13 11:14:53;;;;;;;2.67;1.00;;;;;;;;;;4995907;28;20053;-56
2022/03/13 11:17:20;;;;;;;3.15;1.00;;;;;;;;;;4995962;28;20088;-57
2022/03/13 11:19:48;;;;;;;2.92;1.08;;;;;;;;;;4997734;28;20038;-56
2022/03/13 11:22:17;;;;;;;6.63;1.08;;;;;;;;;;4998837;28;20042;-56
2022/03/13 11:24:44;;;;;;;13.23;1.60;;;;;;;;;;4996863;28;20061;-54
2022/03/13 11:27:11;;;;;;;3.15;1.13;;;;;;;;;;5002736;28;20044;-57
2022/03/13 11:29:41;;;;;;;2.78;0.95;;;;;;;;;;5016668;28;20049;-57
2022/03/13 11:32:27;;;;;;;3.08;0.98;;;;;;;;;;5001091;28;20599;-56
2022/03/13 11:37:39;;;;;;;2.67;0.90;;;;;;;;;;4999358;28;20043;-56
2022/03/13 11:40:07;;;;;;;6.55;1.10;;;;;;;;;;5003424;28;20058;-56
2022/03/13 11:42:48;;;;;;;4.22;1.15;;;;;;;;;;4999687;28;20080;-57
2022/03/13 11:45:34;;;;;;;4.40;1.10;;;;;;;;;;4998338;28;20037;-56
2022/03/13 11:48:06;;;;;;;6.13;1.48;;;;;;;;;;4993030;28;20669;-56
2022/03/13 11:50:49;;;;;;;5.72;1.27;;;;;;;;;;4997706;28;20045;-56
2022/03/13 11:53:22;;;;;;;3.80;1.37;;;;;;;;;;4997433;28;20054;-57
2022/03/13 11:55:56;;;;;;;6.13;1.15;;;;;;;;;;4997135;28;20287;-56
2022/03/13 11:58:41;;;;;;;4.95;1.45;;;;;;;;;;4996059;28;20046;-56
2022/03/13 12:01:20;;;;;;;7.45;1.50;;;;;;;;;;4995848;28;20033;-54
2022/03/13 12:04:15;;;;;;;5.97;1.75;;;;;;;;;;4998367;28;20037;-55
2022/03/13 12:06:46;;;;;;;8.15;1.35;;;;;;;;;;5001675;28;20057;-56
2022/03/13 12:09:13;;;;;;;5.38;1.40;;;;;;;;;;4997695;28;20885;-56
2022/03/13 12:11:47;;;;;;;4.15;1.20;;;;;;;;;;4995972;28;20137;-54
2022/03/13 12:14:14;;;;;;;2.88;0.98;;;;;;;;;;4999780;28;20149;-57
2022/03/13 12:16:41;;;;;;;2.08;0.73;;;;;;;;;;5026772;28;20046;-57
2022/03/13 12:19:07;;;;;;;3.33;1.00;;;;;;;;;;4997090;28;20034;-57
2022/03/13 12:21:34;;;;;;;5.60;1.02;;;;;;;;;;4994868;28;20049;-57
2022/03/13 12:24:12;;;;;;;2.70;0.75;;;;;;;;;;4997174;28;20046;-57
2022/03/13 12:26:39;;;;;;;3.15;0.70;;;;;;;;;;4994809;28;20510;-57
2022/03/13 12:29:07;;;;;;;10.40;1.10;;;;;;;;;;4996419;28;20490;-56
2022/03/13 12:31:40;;;;;;;1.77;0.60;;;;;;;;;;5003030;28;20045;-56
2022/03/13 12:34:06;;;;;;;2.13;0.75;;;;;;;;;;4988865;28;20050;-56
2022/03/13 12:36:36;;;;;;;7.30;1.02;;;;;;;;;;5000723;28;20169;-56
2022/03/13 12:39:06;;;;;;;2.53;0.65;;;;;;;;;;5001084;28;20465;-56
2022/03/13 12:41:32;;;;;;;2.53;1.02;;;;;;;;;;4999224;28;20072;-56
2022/03/13 12:44:05;;;;;;;3.10;0.90;;;;;;;;;;5031734;28;20880;-56
2022/03/13 12:46:32;;;;;;;5.05;0.88;;;;;;;;;;4998832;28;20399;-57
2022/03/13 12:49:02;;;;;;;3.13;0.88;;;;;;;;;;4998132;28;20056;-57
2022/03/13 12:51:41;;;;;;;6.32;1.10;;;;;;;;;;5000937;28;20045;-55
2022/03/13 12:54:17;;;;;;;3.72;1.00;;;;;;;;;;5002343;28;20050;-56
2022/03/13 12:56:53;;;;;;;3.42;1.08;;;;;;;;;;4999072;28;20057;-55
2022/03/13 12:59:22;;;;;;;6.60;1.15;;;;;;;;;;4999852;28;20034;-55
2022/03/13 13:02:06;;;;;;;9.02;1.30;;;;;;;;;;5001822;28;20097;-56
2022/03/13 13:04:33;;;;;;;6.85;1.17;;;;;;;;;;5000594;28;20402;-56
2022/03/13 13:06:59;;;;;;;3.88;1.02;;;;;;;;;;5001631;28;20036;-56
2022/03/13 13:09:28;;;;;;;5.50;1.10;;;;;;;;;;4999236;28;20038;-59
2022/03/13 13:11:55;;;;;;;5.45;1.45;;;;;;;;;;5001300;28;20054;-56
2022/03/13 13:14:24;;;;;;;4.35;1.23;;;;;;;;;;5001982;28;20057;-56
2022/03/13 13:16:51;;;;;;;2.83;0.88;;;;;;;;;;5001580;28;20033;-56
2022/03/13 13:19:17;;;;;;;7.13;1.38;;;;;;;;;;5016588;28;20040;-57
2022/03/13 13:21:44;;;;;;;7.28;1.02;;;;;;;;;;5003090;28;20084;-54
2022/03/13 13:24:19;;;;;;;2.97;0.95;;;;;;;;;;4999440;28;20512;-57
2022/03/13 13:26:45;;;;;;;4.18;1.10;;;;;;;;;;4997895;28;20046;-56
2022/03/13 13:29:11;;;;;;;4.05;1.10;;;;;;;;;;5034668;28;20041;-56
2022/03/13 13:31:37;;;;;;;3.47;1.08;;;;;;;;;;5002383;28;20312;-54
2022/03/13 13:34:14;;;;;;;4.45;1.08;;;;;;;;;;4999403;28;20048;-55
2022/03/13 13:36:40;;;;;;;5.53;1.35;;;;;;;;;;4999756;28;20049;-54
2022/03/13 13:39:06;;;;;;;3.42;1.00;;;;;;;;;;5000053;28;20108;-56
2022/03/13 13:41:36;;;;;;;5.97;1.45;;;;;;;;;;5003741;28;20041;-55
2022/03/13 13:44:03;;;;;;;5.25;0.95;;;;;;;;;;5003446;28;20046;-54
2022/03/13 13:46:30;;;;;;;7.60;1.05;;;;;;;;;;5000877;28;20046;-56
2022/03/13 13:48:57;;;;;;;2.85;0.90;;;;;;;;;;4997811;28;20675;-57
2022/03/13 13:51:23;;;;;;;2.63;0.88;;;;;;;;;;4999750;28;20046;-57
2022/03/13 13:53:52;;;;;;;3.15;0.90;;;;;;;;;;5000404;28;20508;-53
2022/03/13 13:56:34;;;;;;;2.58;0.95;;;;;;;;;;4998759;28;20046;-58
2022/03/13 13:59:14;;;;;;;9.70;1.20;;;;;;;;;;4999271;28;20049;-57
2022/03/13 14:01:41;;;;;;;9.02;1.17;;;;;;;;;;4999306;28;20073;-58
2022/03/13 14:04:07;;;;;;;3.08;0.90;;;;;;;;;;4998853;28;20434;-57
2022/03/13 14:06:34;;;;;;;3.05;0.95;;;;;;;;;;4996675;28;20103;-57
2022/03/13 14:09:01;;;;;;;2.70;1.10;;;;;;;;;;4999062;28;20038;-54
2022/03/13 14:11:27;;;;;;;3.33;1.05;;;;;;;;;;4996696;28;20065;-55
2022/03/13 14:13:53;;;;;;;3.28;1.40;;;;;;;;;;5001015;28;20076;-56
2022/03/13 14:16:19;;;;;;;3.03;1.00;;;;;;;;;;4995745;28;20087;-54
2022/03/13 14:18:46;;;;;;;3.58;1.30;;;;;;;;;;4997217;28;20042;-56
2022/03/13 14:21:12;;;;;;;4.35;1.15;;;;;;;;;;4997519;28;20777;-56
2022/03/13 14:23:38;;;;;;;3.88;1.10;;;;;;;;;;4996678;28;20046;-57
2022/03/13 14:26:04;;;;;;;4.57;1.02;;;;;;;;;;4997089;28;20088;-55
2022/03/13 14:28:30;;;;;;;5.22;1.08;;;;;;;;;;4996151;28;20042;-54
2022/03/13 14:30:56;;;;;;;3.00;0.90;;;;;;;;;;4998136;28;20041;-57
2022/03/13 14:33:23;;;;;;;2.70;0.98;;;;;;;;;;5001087;28;20068;-56
2022/03/13 14:35:49;;;;;;;3.05;0.93;;;;;;;;;;4995982;28;20065;-57
2022/03/13 14:38:16;;;;;;;3.17;1.13;;;;;;;;;;4991616;28;20037;-54
2022/03/13 14:40:42;;;;;;;2.92;0.85;;;;;;;;;;4996842;28;20061;-56
2022/03/13 14:43:09;;;;;;;3.42;1.20;;;;;;;;;;4999181;28;20212;-56
2022/03/13 14:45:36;;;;;;;3.80;1.20;;;;;;;;;;4995996;28;20042;-55
2022/03/13 14:48:02;;;;;;;2.53;1.00;;;;;;;;;;4996573;28;20120;-53
2022/03/13 14:50:28;;;;;;;3.92;1.15;;;;;;;;;;4994858;28;20048;-56